Time;durP1;ratioP1;P1;durP2;ratioP2;P2;SDS_P1;SDS_P2;PMS_P1;PMS_P2;Temp;Humidity;BMP_temperature;BMP_pressure;BME280_temperature;BME280_humidity;BME280_pressure;Samples;Min_cycle;Max_cycle;Signal;HPM_P1;HPM_P2
2022/04/08 04:00:24;;;;;;;6.15;1.50;;;7.80;99.90;;;;;;6256705;22;20162;-75
2022/04/08 04:02:49;;;;;;;6.10;1.30;;;7.70;99.90;;;;;;6314854;22;20046;-74
2022/04/08 04:05:15;;;;;;;5.38;1.67;;;7.70;99.90;;;;;;6314927;22;20003;-74
2022/04/08 04:07:42;;;;;;;5.10;1.23;;;7.70;99.90;;;;;;6314906;22;20054;-75
2022/04/08 04:10:08;;;;;;;5.72;1.70;;;7.70;99.90;;;;;;6314686;22;20042;-74
2022/04/08 04:12:33;;;;;;;5.35;1.10;;;7.70;99.90;;;;;;6315089;22;20061;-74
2022/04/08 04:14:59;;;;;;;5.95;1.70;;;7.70;99.90;;;;;;6313898;22;20004;-75
2022/04/08 04:17:28;;;;;;;4.10;1.25;;;7.70;99.90;;;;;;6314955;22;19996;-75
2022/04/08 04:19:53;;;;;;;4.68;1.00;;;7.70;99.90;;;;;;6314772;22;20095;-75
2022/04/08 04:22:19;;;;;;;4.68;1.20;;;7.70;99.90;;;;;;6314494;22;20007;-75
2022/04/08 04:24:45;;;;;;;5.22;1.00;;;7.70;99.90;;;;;;6315113;22;20003;-75
2022/04/08 04:27:11;;;;;;;6.90;1.25;;;7.70;99.90;;;;;;6314906;22;20071;-75
2022/04/08 04:29:36;;;;;;;4.00;1.20;;;7.70;99.90;;;;;;6314494;22;20454;-75
2022/04/08 04:32:03;;;;;;;4.68;1.40;;;7.70;99.90;;;;;;6312831;22;20055;-75
2022/04/08 04:34:36;;;;;;;7.75;2.20;;;7.60;99.90;;;;;;6315034;22;20010;-75
2022/04/08 04:37:03;;;;;;;5.95;1.92;;;7.60;99.90;;;;;;6315003;22;20030;-75
2022/04/08 04:39:29;;;;;;;6.55;1.33;;;7.70;99.90;;;;;;6314731;22;20007;-75
2022/04/08 04:41:55;;;;;;;6.90;1.50;;;7.60;99.90;;;;;;6312957;22;20050;-74
2022/04/08 04:44:20;;;;;;;5.70;1.80;;;7.70;99.90;;;;;;6313284;22;20012;-75
2022/04/08 04:46:46;;;;;;;5.78;1.38;;;7.70;99.90;;;;;;6313207;22;20008;-74
2022/04/08 04:49:11;;;;;;;4.40;1.35;;;7.70;99.90;;;;;;6314538;22;20015;-75
2022/04/08 04:51:37;;;;;;;6.18;1.52;;;7.60;99.90;;;;;;6314591;22;20035;-75
2022/04/08 04:54:02;;;;;;;5.15;1.35;;;7.60;99.90;;;;;;6313741;22;20008;-75
2022/04/08 04:56:28;;;;;;;9.15;1.85;;;7.60;99.90;;;;;;6315821;22;20007;-75
2022/04/08 04:58:54;;;;;;;8.65;1.42;;;7.60;99.90;;;;;;6313773;22;20019;-75
2022/04/08 05:01:19;;;;;;;5.85;1.58;;;7.60;99.90;;;;;;6314725;22;20023;-75
2022/04/08 05:03:45;;;;;;;9.65;1.65;;;7.60;99.90;;;;;;6315177;22;20126;-75
2022/04/08 05:06:10;;;;;;;8.93;1.73;;;7.70;99.90;;;;;;6314873;22;20003;-74
2022/04/08 05:08:36;;;;;;;9.68;1.80;;;7.70;99.90;;;;;;6314664;22;20006;-75
2022/04/08 05:11:02;;;;;;;4.80;1.45;;;7.60;99.90;;;;;;6315613;22;20042;-74
2022/04/08 05:13:27;;;;;;;8.13;1.50;;;7.70;99.90;;;;;;6314631;22;20339;-74
2022/04/08 05:15:53;;;;;;;6.90;2.10;;;7.70;99.90;;;;;;6313802;22;20423;-74
2022/04/08 05:18:18;;;;;;;6.72;1.60;;;7.70;99.90;;;;;;6313525;22;20011;-74
2022/04/08 05:20:44;;;;;;;7.60;1.80;;;7.70;99.90;;;;;;6314148;22;20014;-74
2022/04/08 05:23:09;;;;;;;5.70;1.70;;;7.70;99.90;;;;;;6314459;22;20042;-74
2022/04/08 05:25:35;;;;;;;6.35;1.55;;;7.70;99.90;;;;;;6314579;22;20010;-74
2022/04/08 05:28:00;;;;;;;4.75;1.70;;;7.70;99.90;;;;;;6314479;22;20054;-75
2022/04/08 05:30:26;;;;;;;9.32;1.92;;;7.70;99.90;;;;;;6314293;22;20015;-76
2022/04/08 05:32:52;;;;;;;10.32;2.22;;;7.70;99.90;;;;;;6314404;22;20031;-76
2022/04/08 05:35:18;;;;;;;8.98;1.60;;;7.70;99.90;;;;;;6314777;22;20467;-75
2022/04/08 05:37:46;;;;;;;8.40;1.40;;;7.80;99.90;;;;;;6314830;22;20004;-74
2022/04/08 05:40:16;;;;;;;10.02;2.50;;;7.90;99.90;;;;;;6314540;22;20424;-74
2022/04/08 05:42:44;;;;;;;5.95;1.92;;;8.00;99.90;;;;;;6315279;22;20000;-75
2022/04/08 05:45:11;;;;;;;9.38;1.70;;;8.00;99.90;;;;;;6313747;22;20004;-75
2022/04/08 05:47:37;;;;;;;9.60;1.95;;;8.00;99.90;;;;;;6315437;22;19999;-77
2022/04/08 05:50:03;;;;;;;7.25;2.00;;;8.10;99.90;;;;;;6285811;22;20422;-74
2022/04/08 05:52:29;;;;;;;8.15;2.00;;;8.10;99.90;;;;;;6313766;22;20003;-75
2022/04/08 05:54:55;;;;;;;8.27;1.67;;;8.10;99.90;;;;;;6314334;22;20008;-76
2022/04/08 05:57:21;;;;;;;9.95;1.90;;;8.10;99.90;;;;;;6314373;22;20312;-75
2022/04/08 05:59:47;;;;;;;6.15;1.90;;;8.20;99.90;;;;;;6314276;22;20008;-75
2022/04/08 06:02:13;;;;;;;6.30;1.80;;;8.30;99.90;;;;;;6305329;22;20012;-75
2022/04/08 06:04:38;;;;;;;6.78;2.00;;;8.30;99.90;;;;;;6314048;22;20449;-75
2022/04/08 06:07:04;;;;;;;11.13;2.15;;;8.40;99.90;;;;;;6313873;22;20007;-76
2022/04/08 06:09:30;;;;;;;7.38;1.60;;;8.50;99.90;;;;;;6309487;22;20016;-74
2022/04/08 06:11:55;;;;;;;5.70;1.60;;;8.50;99.90;;;;;;6310017;22;20328;-75
2022/04/08 06:14:21;;;;;;;6.68;1.90;;;8.70;99.90;;;;;;6302600;22;20389;-75
2022/04/08 06:16:46;;;;;;;6.70;1.52;;;8.70;99.90;;;;;;6304600;22;20003;-74
2022/04/08 06:19:12;;;;;;;6.68;1.73;;;8.70;99.90;;;;;;6307040;22;20813;-74
2022/04/08 06:21:38;;;;;;;7.15;1.70;;;8.70;99.90;;;;;;6299775;22;20002;-76
2022/04/08 06:24:04;;;;;;;11.10;2.22;;;8.70;99.90;;;;;;6308797;22;20007;-74
2022/04/08 06:26:29;;;;;;;9.88;1.92;;;8.80;99.90;;;;;;6309153;22;20003;-74
2022/04/08 06:28:55;;;;;;;10.05;2.15;;;8.80;99.90;;;;;;6300786;22;20347;-77
2022/04/08 06:31:21;;;;;;;8.80;1.90;;;8.90;99.90;;;;;;6303347;22;20011;-73
2022/04/08 06:33:46;;;;;;;4.75;1.60;;;8.90;99.90;;;;;;6305764;22;20004;-73
2022/04/08 06:36:12;;;;;;;9.50;1.73;;;8.90;99.90;;;;;;6303605;22;20509;-74
2022/04/08 06:38:37;;;;;;;7.97;2.17;;;9.00;99.90;;;;;;6305372;22;20125;-73
2022/04/08 06:41:03;;;;;;;6.68;1.55;;;9.00;99.90;;;;;;6313611;22;20431;-74
2022/04/08 06:43:28;;;;;;;8.85;1.83;;;9.00;99.90;;;;;;6311993;22;20026;-74
2022/04/08 06:45:54;;;;;;;7.35;1.92;;;9.10;99.90;;;;;;6313589;22;20038;-75
2022/04/08 06:48:20;;;;;;;12.45;2.08;;;9.10;99.90;;;;;;6313486;22;20007;-75
2022/04/08 06:50:45;;;;;;;6.22;1.77;;;9.10;99.90;;;;;;6311458;22;20018;-74
2022/04/08 06:53:11;;;;;;;8.55;1.67;;;9.20;99.90;;;;;;6313846;22;19995;-75
2022/04/08 06:55:36;;;;;;;8.00;1.92;;;9.20;99.90;;;;;;6312311;22;20012;-75
2022/04/08 06:58:03;;;;;;;7.13;2.22;;;9.30;99.90;;;;;;6313864;22;20497;-75
2022/04/08 07:00:32;;;;;;;9.50;1.73;;;9.30;99.90;;;;;;6313040;22;20467;-75
2022/04/08 07:02:58;;;;;;;9.10;1.80;;;9.30;99.90;;;;;;6314310;22;20088;-75
2022/04/08 07:05:28;;;;;;;6.50;1.77;;;9.30;99.90;;;;;;6314033;22;20023;-75
2022/04/08 07:07:54;;;;;;;10.23;1.80;;;9.30;99.90;;;;;;6313650;22;20004;-76
2022/04/08 07:10:20;;;;;;;9.18;1.70;;;9.30;99.90;;;;;;6313697;22;20012;-75
2022/04/08 07:12:46;;;;;;;7.85;1.80;;;9.30;99.90;;;;;;6313935;22;20330;-75
2022/04/08 07:15:11;;;;;;;5.57;1.83;;;9.30;99.90;;;;;;6314076;22;20399;-75
2022/04/08 07:17:37;;;;;;;4.65;1.50;;;9.40;99.90;;;;;;6285851;22;20019;-75
2022/04/08 07:20:07;;;;;;;10.02;1.80;;;9.40;99.90;;;;;;6313526;22;20360;-76
2022/04/08 07:22:33;;;;;;;6.57;1.55;;;9.60;99.90;;;;;;6313930;22;20008;-76
2022/04/08 07:24:59;;;;;;;6.70;1.73;;;9.70;99.90;;;;;;6314108;22;20384;-76
2022/04/08 07:27:24;;;;;;;7.78;1.67;;;9.70;99.90;;;;;;6313941;22;20146;-77
2022/04/08 07:29:51;;;;;;;5.78;1.55;;;9.80;99.90;;;;;;6313390;22;20087;-76
2022/04/08 07:32:20;;;;;;;6.28;1.52;;;9.80;99.90;;;;;;6313557;22;20452;-76
2022/04/08 07:34:52;;;;;;;10.25;2.17;;;9.60;99.90;;;;;;6285968;22;20395;-76
2022/04/08 07:37:28;;;;;;;5.18;1.40;;;9.60;99.90;;;;;;6314981;22;20007;-75
2022/04/08 07:39:54;;;;;;;7.13;1.58;;;9.40;99.90;;;;;;6314675;22;20007;-75
2022/04/08 07:42:19;;;;;;;6.78;1.77;;;9.30;99.90;;;;;;6314199;22;20004;-76
2022/04/08 07:44:45;;;;;;;6.22;1.40;;;9.30;99.90;;;;;;6315059;22;20010;-75
2022/04/08 07:47:10;;;;;;;5.45;1.25;;;9.30;99.90;;;;;;6315094;22;20004;-75
2022/04/08 07:49:36;;;;;;;8.25;1.50;;;9.30;99.90;;;;;;6314670;22;20019;-75
2022/04/08 07:52:02;;;;;;;5.43;1.58;;;9.30;99.90;;;;;;6314716;22;20007;-75
2022/04/08 07:54:28;;;;;;;6.28;1.55;;;9.20;99.90;;;;;;6315044;22;20004;-75
2022/04/08 07:56:53;;;;;;;6.15;1.23;;;9.10;99.90;;;;;;6287225;22;20438;-75
2022/04/08 07:59:19;;;;;;;3.53;1.13;;;9.10;99.90;;;;;;6314520;22;20012;-75
2022/04/08 08:01:46;;;;;;;4.35;1.20;;;9.00;99.90;;;;;;6314178;22;20008;-75
2022/04/08 08:04:11;;;;;;;4.60;1.33;;;9.00;99.90;;;;;;6314880;22;20007;-75
2022/04/08 08:06:37;;;;;;;5.30;1.45;;;8.90;99.90;;;;;;6314758;22;20011;-76
2022/04/08 08:09:03;;;;;;;3.45;1.15;;;8.60;99.90;;;;;;6314574;22;20004;-75
2022/04/08 08:11:28;;;;;;;5.00;1.15;;;8.50;99.90;;;;;;6314215;22;20058;-75
2022/04/08 08:13:54;;;;;;;3.03;1.30;;;8.40;99.90;;;;;;6314505;22;19999;-75
2022/04/08 08:16:20;;;;;;;5.32;1.25;;;8.40;99.90;;;;;;6314520;22;20077;-76
2022/04/08 08:18:45;;;;;;;4.75;1.02;;;8.40;99.90;;;;;;6314047;22;20008;-75
2022/04/08 08:21:12;;;;;;;5.82;1.63;;;8.40;99.90;;;;;;6314657;22;20027;-75
2022/04/08 08:23:37;;;;;;;5.30;1.40;;;8.40;99.90;;;;;;6314742;22;20004;-75
2022/04/08 08:26:03;;;;;;;4.25;1.33;;;8.40;99.90;;;;;;6314767;22;20019;-75
2022/04/08 08:28:29;;;;;;;5.82;1.50;;;8.40;99.90;;;;;;6286954;22;20031;-76
2022/04/08 08:30:55;;;;;;;7.53;1.63;;;8.20;99.90;;;;;;6314239;22;20008;-75
2022/04/08 08:33:20;;;;;;;3.20;1.27;;;8.10;99.90;;;;;;6314505;22;20006;-78
2022/04/08 08:35:47;;;;;;;4.38;1.27;;;7.70;99.90;;;;;;6314695;22;20079;-75
2022/04/08 08:38:12;;;;;;;5.05;1.48;;;7.50;99.90;;;;;;6286706;22;20435;-75
2022/04/08 08:40:43;;;;;;;3.08;1.52;;;7.20;99.90;;;;;;6314121;22;20087;-76
2022/04/08 08:43:09;;;;;;;4.93;1.60;;;7.20;99.90;;;;;;6315086;22;19999;-75
2022/04/08 08:45:34;;;;;;;3.47;1.10;;;7.20;99.90;;;;;;6314879;22;20011;-76
2022/04/08 08:48:02;;;;;;;6.93;1.30;;;7.10;99.90;;;;;;6314270;22;20000;-76
2022/04/08 08:50:29;;;;;;;5.13;1.40;;;7.00;99.90;;;;;;6314382;22;20012;-75
2022/04/08 08:52:55;;;;;;;3.17;1.27;;;7.00;99.90;;;;;;6315209;22;20004;-75
2022/04/08 08:55:21;;;;;;;6.07;1.67;;;7.00;99.90;;;;;;6315458;22;20012;-76
2022/04/08 08:57:47;;;;;;;5.43;1.50;;;6.90;99.90;;;;;;6314966;22;20000;-75
2022/04/08 09:00:16;;;;;;;3.47;1.30;;;6.90;99.90;;;;;;6314423;22;20004;-76
2022/04/08 09:02:48;;;;;;;4.93;2.13;;;6.90;99.90;;;;;;6283765;22;20444;-76
2022/04/08 09:05:26;;;;;;;3.45;1.38;;;6.90;99.90;;;;;;6284015;22;20004;-76
2022/04/08 09:08:05;;;;;;;5.15;1.40;;;7.00;99.90;;;;;;6283548;22;20428;-76
2022/04/08 09:10:40;;;;;;;5.65;1.60;;;7.10;99.90;;;;;;6282675;22;20435;-75
2022/04/08 09:13:10;;;;;;;7.90;1.75;;;7.30;99.90;;;;;;6283043;22;20012;-76
2022/04/08 09:15:39;;;;;;;4.78;1.50;;;7.30;99.90;;;;;;6283157;22;20015;-76
2022/04/08 09:18:11;;;;;;;5.53;1.75;;;7.30;99.90;;;;;;6283238;22;20008;-76
2022/04/08 09:20:41;;;;;;;5.13;1.50;;;7.30;99.90;;;;;;6283398;22;20004;-76
2022/04/08 09:23:09;;;;;;;5.75;1.70;;;7.40;99.90;;;;;;6282939;22;20004;-76
2022/04/08 09:25:35;;;;;;;5.70;2.45;;;7.20;99.90;;;;;;6283472;22;20436;-77
2022/04/08 09:28:15;;;;;;;7.70;2.70;;;7.20;99.90;;;;;;6283352;22;20011;-76
2022/04/08 09:30:46;;;;;;;4.15;2.60;;;7.30;99.90;;;;;;6256089;22;20020;-75
2022/04/08 09:33:16;;;;;;;3.13;1.23;;;7.40;99.90;;;;;;6256459;22;20011;-76
2022/04/08 09:35:42;;;;;;;5.40;1.30;;;7.50;99.90;;;;;;6283649;22;20440;-76
2022/04/08 09:38:08;;;;;;;3.97;1.20;;;7.40;99.90;;;;;;6283406;22;20007;-76
2022/04/08 09:40:38;;;;;;;6.80;1.77;;;7.40;99.90;;;;;;6283246;22;20011;-76
2022/04/08 09:43:04;;;;;;;4.22;1.38;;;7.50;99.90;;;;;;6283634;22;20789;-76
2022/04/08 09:45:30;;;;;;;3.15;1.20;;;7.50;99.90;;;;;;6283520;22;20054;-77
2022/04/08 09:47:58;;;;;;;3.47;1.30;;;7.50;99.90;;;;;;6283130;22;20355;-76
2022/04/08 09:50:24;;;;;;;4.40;1.60;;;7.50;99.90;;;;;;6283190;22;20459;-75
2022/04/08 09:52:50;;;;;;;6.68;1.98;;;7.40;99.90;;;;;;6256164;22;20053;-77
2022/04/08 09:55:16;;;;;;;2.17;1.33;;;7.40;99.90;;;;;;6283439;22;20158;-76
2022/04/08 09:57:45;;;;;;;2.83;1.20;;;7.40;99.90;;;;;;6283142;22;20000;-76
2022/04/08 10:00:11;;;;;;;6.32;2.30;;;7.30;99.90;;;;;;6282832;22;20015;-76
2022/04/08 10:02:41;;;;;;;2.67;1.30;;;7.40;99.90;;;;;;6313760;22;20030;-76
2022/04/08 10:05:11;;;;;;;3.10;1.23;;;7.30;99.90;;;;;;6314434;22;20039;-76
2022/04/08 10:07:39;;;;;;;6.20;1.40;;;7.30;99.90;;;;;;6314300;22;20003;-76
2022/04/08 10:10:27;;;;;;;5.13;1.70;;;7.30;99.90;;;;;;6286263;22;20091;-76
2022/04/08 10:13:05;;;;;;;2.83;1.10;;;7.30;99.90;;;;;;6215908;22;20003;-76
2022/04/08 10:15:43;;;;;;;3.30;1.50;;;7.30;99.90;;;;;;6314110;22;20094;-77
2022/04/08 10:18:09;;;;;;;3.47;1.17;;;7.30;99.90;;;;;;6313636;22;20012;-77
2022/04/08 10:20:37;;;;;;;3.08;1.45;;;7.20;99.90;;;;;;6312644;22;20007;-77
2022/04/08 10:23:15;;;;;;;4.43;1.50;;;7.10;99.90;;;;;;6310344;22;20057;-76
2022/04/08 10:25:48;;;;;;;1.67;0.90;;;7.00;99.90;;;;;;6314284;22;20148;-77
2022/04/08 10:28:13;;;;;;;2.40;1.67;;;7.00;99.90;;;;;;6313424;22;20353;-77
2022/04/08 10:30:47;;;;;;;1.40;1.00;;;6.90;99.90;;;;;;6314898;22;20415;-75
2022/04/08 10:33:23;;;;;;;4.38;2.45;;;6.80;99.90;;;;;;6313452;22;20014;-77
2022/04/08 10:35:59;;;;;;;2.97;1.65;;;6.90;99.90;;;;;;6314344;22;20012;-78
2022/04/08 10:38:37;;;;;;;2.42;1.40;;;6.80;99.90;;;;;;6314603;22;20058;-78
2022/04/08 10:41:07;;;;;;;4.72;1.55;;;7.00;99.90;;;;;;6329166;22;19983;-78
2022/04/08 10:43:42;;;;;;;3.13;1.30;;;;;;;;;;6342350;22;20003;-78
2022/04/08 10:46:08;;;;;;;2.20;0.98;;;7.10;99.90;;;;;;6315799;22;20469;-79
2022/04/08 10:48:34;;;;;;;5.60;1.40;;;7.10;99.90;;;;;;6315380;22;20008;-78
2022/04/08 10:51:14;;;;;;;3.30;2.03;;;7.20;99.90;;;;;;6315100;22;20066;-79
2022/04/08 10:53:41;;;;;;;2.75;1.95;;;7.20;99.90;;;;;;6315591;22;20015;-79
2022/04/08 10:56:13;;;;;;;2.97;2.50;;;7.30;99.90;;;;;;6318119;22;20012;-79
2022/04/08 10:58:42;;;;;;;4.60;1.88;;;7.40;99.90;;;;;;6315786;22;20000;-80
2022/04/08 11:01:21;;;;;;;2.30;1.20;;;7.50;99.90;;;;;;6319001;22;20514;-80
2022/04/08 11:03:54;;;;;;;2.28;1.38;;;7.40;99.90;;;;;;6316460;22;20086;-78
2022/04/08 11:06:19;;;;;;;2.42;0.98;;;7.40;99.90;;;;;;6319370;22;20437;-80
2022/04/08 11:08:45;;;;;;;1.75;0.82;;;7.40;99.90;;;;;;6321761;22;20008;-79
2022/04/08 11:11:11;;;;;;;1.52;0.80;;;7.40;99.90;;;;;;6317910;22;20058;-81
2022/04/08 11:13:40;;;;;;;2.15;0.80;;;7.40;99.90;;;;;;6316029;22;20004;-76
2022/04/08 11:16:06;;;;;;;2.20;1.00;;;7.10;99.90;;;;;;6315771;22;20034;-76
2022/04/08 11:18:32;;;;;;;1.60;0.95;;;7.20;99.90;;;;;;6287731;22;20411;-76
2022/04/08 11:20:57;;;;;;;2.00;1.20;;;7.20;99.90;;;;;;6288502;22;20011;-76
2022/04/08 11:23:26;;;;;;;3.03;0.73;;;7.20;99.90;;;;;;6287995;22;20435;-76
2022/04/08 11:25:52;;;;;;;1.92;0.88;;;7.20;99.90;;;;;;6316403;22;20422;-77
2022/04/08 11:28:22;;;;;;;1.52;0.80;;;7.20;99.90;;;;;;6288813;22;20007;-76
2022/04/08 11:30:54;;;;;;;1.77;0.85;;;7.20;99.90;;;;;;6288664;22;20015;-75
2022/04/08 11:33:20;;;;;;;2.10;0.90;;;7.30;99.90;;;;;;6316223;22;20030;-76
2022/04/08 11:35:47;;;;;;;2.28;1.08;;;7.30;99.90;;;;;;6317486;22;20082;-76
2022/04/08 11:38:17;;;;;;;3.85;0.88;;;7.50;99.90;;;;;;6316653;22;20450;-76
2022/04/08 11:40:44;;;;;;;2.28;0.75;;;7.50;99.90;;;;;;6315480;22;20003;-76
2022/04/08 11:43:13;;;;;;;3.17;1.00;;;7.40;99.90;;;;;;6287542;22;20011;-76
2022/04/08 11:45:38;;;;;;;1.08;0.60;;;7.40;99.90;;;;;;6287151;22;20084;-76
2022/04/08 11:48:06;;;;;;;1.05;0.75;;;7.40;99.90;;;;;;6314775;22;20079;-76
2022/04/08 11:50:35;;;;;;;1.83;0.90;;;7.40;99.90;;;;;;6314990;22;20020;-76
2022/04/08 11:53:02;;;;;;;2.83;0.82;;;7.30;99.90;;;;;;6315563;22;20079;-76
2022/04/08 11:55:28;;;;;;;2.13;0.70;;;7.30;99.90;;;;;;6287419;22;20149;-76
2022/04/08 11:57:55;;;;;;;1.67;0.68;;;7.00;99.90;;;;;;6314882;22;20015;-76
2022/04/08 12:00:33;;;;;;;1.40;0.70;;;7.00;99.90;;;;;;6315279;22;20003;-76
2022/04/08 12:02:59;;;;;;;1.65;0.90;;;6.90;99.90;;;;;;6315632;22;19999;-76
2022/04/08 12:05:25;;;;;;;2.15;0.90;;;6.80;99.90;;;;;;6314820;22;20023;-76
2022/04/08 12:08:00;;;;;;;1.63;0.88;;;6.90;99.90;;;;;;6287383;22;20090;-76
2022/04/08 12:10:26;;;;;;;2.63;0.98;;;6.90;99.90;;;;;;6315146;22;20090;-76
2022/04/08 12:12:53;;;;;;;2.10;1.10;;;6.90;99.90;;;;;;6315073;22;20079;-76
2022/04/08 12:15:23;;;;;;;1.50;0.70;;;6.80;99.90;;;;;;6314335;22;20012;-76
2022/04/08 12:17:50;;;;;;;3.13;0.80;;;6.80;99.90;;;;;;6314689;22;20079;-76
2022/04/08 12:20:20;;;;;;;1.50;0.77;;;7.00;99.90;;;;;;6315186;22;20061;-76
2022/04/08 12:22:47;;;;;;;1.90;0.52;;;7.00;99.90;;;;;;6287160;22;20008;-75
2022/04/08 12:25:14;;;;;;;0.80;0.60;;;6.90;99.90;;;;;;6286893;22;20035;-75
2022/04/08 12:27:40;;;;;;;2.53;0.70;;;6.90;99.90;;;;;;6287079;22;20083;-75
2022/04/08 12:30:08;;;;;;;1.92;0.75;;;6.90;99.90;;;;;;6286834;22;20085;-76
2022/04/08 12:32:36;;;;;;;4.03;1.65;;;6.90;99.90;;;;;;6287458;22;20008;-76
2022/04/08 12:35:01;;;;;;;1.52;1.13;;;7.10;99.90;;;;;;6315825;22;20018;-76
2022/04/08 12:37:27;;;;;;;3.85;1.70;;;7.00;99.90;;;;;;6315728;22;20411;-76
2022/04/08 12:39:53;;;;;;;1.42;0.93;;;6.90;99.90;;;;;;6300066;22;20106;-75
2022/04/08 12:42:19;;;;;;;2.55;1.00;;;6.80;99.90;;;;;;6309008;22;20004;-76
2022/04/08 12:44:44;;;;;;;2.30;1.08;;;6.70;99.90;;;;;;6282579;22;20076;-76
2022/04/08 12:47:11;;;;;;;1.95;1.05;;;6.60;99.90;;;;;;6313623;22;20007;-76
2022/04/08 12:49:36;;;;;;;1.70;0.98;;;6.60;99.90;;;;;;6285249;22;20014;-76
2022/04/08 12:52:02;;;;;;;2.88;1.30;;;6.60;99.90;;;;;;6313904;22;20758;-76
2022/04/08 12:54:28;;;;;;;3.03;1.33;;;6.50;99.90;;;;;;6314243;22;20406;-76
2022/04/08 12:56:53;;;;;;;2.38;1.20;;;6.60;99.90;;;;;;6314199;22;20012;-76
2022/04/08 12:59:19;;;;;;;2.28;1.30;;;6.50;99.90;;;;;;6286534;22;20087;-77
2022/04/08 13:01:44;;;;;;;2.00;1.10;;;6.60;99.90;;;;;;6314806;22;20008;-76
2022/04/08 13:04:10;;;;;;;1.92;1.17;;;6.70;99.90;;;;;;6314424;22;20432;-76
2022/04/08 13:06:36;;;;;;;4.13;1.27;;;6.60;99.90;;;;;;6314206;22;20008;-76
2022/04/08 13:09:02;;;;;;;1.77;1.08;;;6.70;99.90;;;;;;6314449;22;20083;-76
2022/04/08 13:11:27;;;;;;;1.35;0.93;;;6.60;99.90;;;;;;6286804;22;20019;-76
2022/04/08 13:13:53;;;;;;;2.83;1.15;;;6.60;99.90;;;;;;6286747;22;20012;-76
2022/04/08 13:16:19;;;;;;;1.83;1.05;;;6.70;99.90;;;;;;6314020;22;20442;-76
2022/04/08 13:18:44;;;;;;;1.83;1.23;;;6.70;99.90;;;;;;6313852;22;20011;-76
2022/04/08 13:21:11;;;;;;;1.58;1.30;;;6.80;99.90;;;;;;6314584;22;20424;-76
2022/04/08 13:23:36;;;;;;;1.88;1.20;;;6.90;99.90;;;;;;6314220;22;20513;-76
2022/04/08 13:26:03;;;;;;;3.03;1.15;;;6.90;99.90;;;;;;6332775;22;19992;-76
2022/04/08 13:28:29;;;;;;;4.53;1.80;;;6.80;99.90;;;;;;6338409;22;20117;-77
2022/04/08 13:30:54;;;;;;;2.17;1.42;;;6.90;99.90;;;;;;6286623;22;20862;-76
2022/04/08 13:33:20;;;;;;;2.33;1.20;;;7.00;99.90;;;;;;6285798;22;20343;-77
2022/04/08 13:35:45;;;;;;;2.65;1.35;;;7.00;99.90;;;;;;6314231;22;20007;-77
2022/04/08 13:38:11;;;;;;;1.40;1.30;;;6.80;99.90;;;;;;6315082;22;20058;-76
2022/04/08 13:40:36;;;;;;;3.17;1.83;;;6.60;99.90;;;;;;6314752;22;20007;-76
2022/04/08 13:43:04;;;;;;;1.88;1.30;;;6.50;99.90;;;;;;6314654;22;20470;-75
2022/04/08 13:45:30;;;;;;;1.83;1.30;;;6.40;99.90;;;;;;6314173;22;20004;-76
2022/04/08 13:47:55;;;;;;;3.83;1.33;;;6.30;99.90;;;;;;6314079;22;20003;-76
2022/04/08 13:50:21;;;;;;;2.30;1.40;;;6.30;99.90;;;;;;6313435;22;20083;-75
2022/04/08 13:52:46;;;;;;;2.63;1.40;;;6.20;99.90;;;;;;6283858;22;20012;-75
2022/04/08 13:55:14;;;;;;;4.00;1.80;;;6.20;99.90;;;;;;6313436;22;20003;-76
2022/04/08 13:57:39;;;;;;;2.85;2.10;;;6.10;99.90;;;;;;6284466;22;20011;-76
2022/04/08 14:00:06;;;;;;;4.65;2.03;;;6.20;99.90;;;;;;6314371;22;20011;-75
2022/04/08 14:02:32;;;;;;;2.10;1.90;;;6.10;99.90;;;;;;6286192;22;20355;-75
2022/04/08 14:04:58;;;;;;;4.60;2.30;;;6.00;99.90;;;;;;6314268;22;20078;-75
2022/04/08 14:07:23;;;;;;;5.68;2.50;;;6.00;99.90;;;;;;6313062;22;20083;-75
2022/04/08 14:09:49;;;;;;;4.30;2.35;;;6.20;99.90;;;;;;6313896;22;20382;-76
2022/04/08 14:12:15;;;;;;;5.47;2.50;;;6.20;99.90;;;;;;6313956;22;19999;-76
2022/04/08 14:14:41;;;;;;;4.45;2.50;;;6.30;99.90;;;;;;6313566;22;20019;-76
2022/04/08 14:17:06;;;;;;;6.20;2.28;;;6.30;99.90;;;;;;6314011;22;19999;-76
2022/04/08 14:19:32;;;;;;;5.82;2.40;;;6.30;99.90;;;;;;6285935;22;20081;-76
2022/04/08 14:21:58;;;;;;;4.82;2.28;;;6.30;99.90;;;;;;6314168;22;20003;-76
2022/04/08 14:24:25;;;;;;;4.65;2.22;;;6.30;99.90;;;;;;6313968;22;20015;-76
2022/04/08 14:26:51;;;;;;;5.50;2.42;;;6.40;99.90;;;;;;6286430;22;20825;-77
2022/04/08 14:29:17;;;;;;;7.47;2.45;;;6.40;99.90;;;;;;6286443;22;20388;-76
2022/04/08 14:31:43;;;;;;;6.70;2.92;;;6.40;99.90;;;;;;6286191;22;20478;-77
2022/04/08 14:34:09;;;;;;;5.15;2.50;;;6.50;99.90;;;;;;6314245;22;20011;-76
2022/04/08 14:36:37;;;;;;;6.63;2.75;;;6.50;99.90;;;;;;6313696;22;20463;-76
2022/04/08 14:39:03;;;;;;;4.53;2.38;;;6.40;99.90;;;;;;6285788;22;20015;-76
2022/04/08 14:41:29;;;;;;;5.47;2.30;;;6.40;99.90;;;;;;6314151;22;20008;-76
2022/04/08 14:43:57;;;;;;;5.47;2.50;;;6.40;99.90;;;;;;6314163;22;20031;-76
2022/04/08 14:46:22;;;;;;;4.95;2.40;;;6.50;99.90;;;;;;6313895;22;20033;-76
2022/04/08 14:48:48;;;;;;;5.22;2.60;;;6.50;99.90;;;;;;6286231;22;20137;-76
2022/04/08 14:51:15;;;;;;;3.15;2.67;;;6.40;99.90;;;;;;6313930;22;20011;-76
2022/04/08 14:53:41;;;;;;;5.95;2.60;;;6.40;99.90;;;;;;6313963;22;20403;-74
2022/04/08 14:56:06;;;;;;;5.18;3.00;;;6.30;99.90;;;;;;6314272;22;20003;-76
2022/04/08 14:58:32;;;;;;;4.93;2.47;;;6.30;99.90;;;;;;6315568;22;20003;-76
2022/04/08 15:00:57;;;;;;;3.22;2.42;;;6.20;99.90;;;;;;6314926;22;20011;-77
2022/04/08 15:03:24;;;;;;;4.10;2.63;;;6.20;99.90;;;;;;6286394;22;20087;-76
2022/04/08 15:05:50;;;;;;;3.90;2.80;;;6.10;99.90;;;;;;6286381;22;20019;-77
2022/04/08 15:08:15;;;;;;;3.95;2.42;;;6.10;99.90;;;;;;6313734;22;20023;-77
2022/04/08 15:10:41;;;;;;;4.18;2.92;;;6.10;99.90;;;;;;6288635;22;20376;-78
2022/04/08 15:13:06;;;;;;;4.70;2.50;;;6.20;99.90;;;;;;6286835;22;20008;-77
2022/04/08 15:15:32;;;;;;;2.80;2.35;;;6.20;99.90;;;;;;6297176;22;20466;-77
2022/04/08 15:17:57;;;;;;;4.40;2.75;;;6.20;99.90;;;;;;6317359;22;20015;-83
2022/04/08 15:20:23;;;;;;;4.55;2.88;;;6.20;99.90;;;;;;6317872;22;20008;-81
2022/04/08 15:22:48;;;;;;;3.50;2.40;;;6.20;99.90;;;;;;6317859;22;20031;-81
2022/04/08 15:25:14;;;;;;;6.15;2.75;;;6.20;99.90;;;;;;6320735;22;20004;-82
2022/04/08 15:27:40;;;;;;;3.10;2.20;;;6.10;99.90;;;;;;6321900;22;20015;-82
2022/04/08 15:30:07;;;;;;;3.35;2.05;;;6.10;99.90;;;;;;6323607;22;20332;-82
2022/04/08 15:32:33;;;;;;;11.52;6.05;;;6.00;99.90;;;;;;6321860;22;20079;-83
2022/04/08 15:34:59;;;;;;;5.63;3.63;;;6.00;99.90;;;;;;6320527;22;20007;-83
2022/04/08 15:37:24;;;;;;;3.85;2.50;;;6.00;99.90;;;;;;6324488;22;20023;-83
2022/04/08 15:39:52;;;;;;;6.22;2.80;;;5.90;99.90;;;;;;6316356;22;20143;-83
2022/04/08 15:42:18;;;;;;;3.20;2.75;;;5.70;99.90;;;;;;6317544;22;20443;-83
2022/04/08 15:44:43;;;;;;;3.80;2.10;;;5.80;99.90;;;;;;6315692;22;20004;-78
2022/04/08 15:47:09;;;;;;;3.33;2.15;;;5.70;99.90;;;;;;6315508;22;20008;-79
2022/04/08 15:49:35;;;;;;;2.63;1.52;;;5.70;99.90;;;;;;6317206;22;20012;-79
2022/04/08 15:52:00;;;;;;;2.55;1.40;;;5.60;99.90;;;;;;6319407;22;20003;-79
2022/04/08 15:54:26;;;;;;;2.58;1.63;;;5.50;99.90;;;;;;6317402;22;20082;-79
2022/04/08 15:56:51;;;;;;;2.33;1.70;;;5.50;99.90;;;;;;6321709;22;20010;-80
2022/04/08 15:59:17;;;;;;;1.90;1.55;;;5.50;99.90;;;;;;6321968;22;20090;-79
2022/04/08 16:01:43;;;;;;;3.83;1.70;;;5.50;99.90;;;;;;6319569;22;20004;-80
2022/04/08 16:04:08;;;;;;;3.58;2.33;;;5.40;99.90;;;;;;6318398;22;20041;-79
2022/04/08 16:06:34;;;;;;;3.42;2.13;;;5.50;99.90;;;;;;6323136;22;20329;-80
2022/04/08 16:09:00;;;;;;;5.68;3.45;;;5.50;99.90;;;;;;6339957;22;20004;-80
2022/04/08 16:11:25;;;;;;;8.85;4.93;;;5.50;99.90;;;;;;6328816;22;20039;-79
2022/04/08 16:13:51;;;;;;;3.08;1.48;;;5.50;99.90;;;;;;6316113;22;20018;-80
2022/04/08 16:16:18;;;;;;;8.75;3.97;;;5.50;99.90;;;;;;6314917;22;20091;-75
2022/04/08 16:18:44;;;;;;;5.10;2.90;;;5.50;99.90;;;;;;6314157;22;20066;-75
2022/04/08 16:21:10;;;;;;;2.00;1.75;;;5.50;99.90;;;;;;6311940;22;20382;-77
2022/04/08 16:23:36;;;;;;;9.77;3.45;;;5.50;99.90;;;;;;6316465;22;20012;-77
2022/04/08 16:26:02;;;;;;;3.38;2.15;;;5.40;99.90;;;;;;6315748;22;20062;-78
2022/04/08 16:28:28;;;;;;;4.38;2.92;;;5.40;99.90;;;;;;6315943;22;20007;-75
2022/04/08 16:30:54;;;;;;;16.48;6.25;;;5.40;99.90;;;;;;6315462;22;20008;-77
2022/04/08 16:33:20;;;;;;;8.13;4.80;;;5.40;99.90;;;;;;6315982;22;20004;-77
2022/04/08 16:35:45;;;;;;;5.88;4.30;;;5.40;99.90;;;;;;6313457;22;20435;-76
2022/04/08 16:38:11;;;;;;;5.93;4.00;;;5.40;99.90;;;;;;6313871;22;20061;-78
2022/04/08 16:40:37;;;;;;;89.70;38.55;;;5.40;99.90;;;;;;6313952;22;20007;-78
2022/04/08 16:43:02;;;;;;;35.75;17.35;;;5.40;99.90;;;;;;6315394;22;20012;-78
2022/04/08 16:45:29;;;;;;;8.10;5.30;;;5.40;99.90;;;;;;6315424;22;20030;-78
2022/04/08 16:47:54;;;;;;;7.85;5.93;;;5.40;99.90;;;;;;6315779;22;20015;-78
2022/04/08 16:50:20;;;;;;;8.18;5.60;;;5.40;99.90;;;;;;6317055;22;20015;-77
2022/04/08 16:52:45;;;;;;;6.65;4.18;;;5.50;99.90;;;;;;6314613;22;20031;-78
2022/04/08 16:55:14;;;;;;;7.68;5.28;;;5.40;99.90;;;;;;6315566;22;20004;-77